createdAt,value
2022-12-10T00:01:40.786Z,49.50
2022-12-10T00:04:07.648Z,46.23
2022-12-10T00:06:37.091Z,50.87
2022-12-10T00:09:06.180Z,50.73
2022-12-10T00:11:34.043Z,46.83
2022-12-10T00:14:01.410Z,49.70
2022-12-10T00:16:31.565Z,49.57
2022-12-10T00:18:58.540Z,50.27
2022-12-10T00:21:28.009Z,48.30
2022-12-10T00:23:55.667Z,53.40
2022-12-10T00:26:25.325Z,50.47
2022-12-10T00:28:53.184Z,49.50
2022-12-10T00:31:22.047Z,49.30
2022-12-10T00:33:50.585Z,41.70
2022-12-10T00:36:19.491Z,49.77
2022-12-10T00:38:47.444Z,48.27
2022-12-10T00:41:15.469Z,50.87
2022-12-10T00:43:42.838Z,47.37
2022-12-10T00:46:10.717Z,48.30
2022-12-10T00:48:37.903Z,53.23
2022-12-10T00:51:08.493Z,51.60
2022-12-10T00:53:37.100Z,51.57
2022-12-10T00:56:05.802Z,52.93
2022-12-10T00:58:34.894Z,56.63
2022-12-10T01:01:10.354Z,56.20
2022-12-10T01:03:37.795Z,57.60
2022-12-10T01:06:15.446Z,48.67
2022-12-10T01:08:43.014Z,47.33
2022-12-10T01:11:11.225Z,48.00
2022-12-10T01:13:38.541Z,52.50
2022-12-10T01:16:08.233Z,54.30
2022-12-10T01:18:35.868Z,48.40
2022-12-10T01:21:03.839Z,51.70
2022-12-10T01:23:34.783Z,50.87
2022-12-10T01:26:03.295Z,48.37
2022-12-10T01:28:31.918Z,47.20
2022-12-10T01:31:02.789Z,54.43
2022-12-10T01:33:31.020Z,52.03
2022-12-10T01:35:58.301Z,47.53
2022-12-10T01:38:25.566Z,46.17
2022-12-10T01:40:53.781Z,49.90
2022-12-10T01:43:21.060Z,51.30
2022-12-10T01:45:48.219Z,46.63
2022-12-10T01:48:17.110Z,43.57
2022-12-10T01:50:44.182Z,53.97
2022-12-10T01:53:12.680Z,46.80
2022-12-10T01:55:50.773Z,47.40
2022-12-10T01:58:20.858Z,48.70
2022-12-10T02:00:59.334Z,51.40
2022-12-10T02:03:35.502Z,47.37
2022-12-10T02:06:11.398Z,43.60
2022-12-10T02:08:47.652Z,45.60
2022-12-10T02:11:18.224Z,44.93
2022-12-10T02:13:54.046Z,42.47
2022-12-10T02:16:27.607Z,45.67
2022-12-10T02:18:59.431Z,40.20
2022-12-10T02:21:33.420Z,41.20
2022-12-10T02:24:04.449Z,43.13
2022-12-10T02:26:39.003Z,48.83
2022-12-10T02:29:15.083Z,40.40
2022-12-10T02:31:47.256Z,42.13
2022-12-10T02:34:16.378Z,42.10
2022-12-10T02:36:46.930Z,44.57
2022-12-10T02:39:19.009Z,42.97
2022-12-10T02:41:49.282Z,38.63
2022-12-10T02:44:19.822Z,43.97
2022-12-10T02:46:49.932Z,40.10
2022-12-10T02:49:18.645Z,39.97
2022-12-10T02:51:45.524Z,40.73
2022-12-10T02:54:41.343Z,39.60
2022-12-10T02:57:31.760Z,40.90
2022-12-10T03:00:13.763Z,42.80
2022-12-10T03:02:52.458Z,36.17
2022-12-10T03:05:24.676Z,36.97
2022-12-10T03:07:57.954Z,34.60
2022-12-10T03:10:31.341Z,37.70
2022-12-10T03:13:01.208Z,33.83
2022-12-10T03:15:34.003Z,36.57
2022-12-10T03:18:05.047Z,34.57
2022-12-10T03:20:33.855Z,40.70
2022-12-10T03:23:02.605Z,38.20
2022-12-10T03:25:32.150Z,37.87
2022-12-10T03:28:01.657Z,37.00
2022-12-10T03:30:33.211Z,36.97
2022-12-10T03:33:01.277Z,39.23
2022-12-10T03:35:28.614Z,37.40
2022-12-10T03:37:56.514Z,38.00
2022-12-10T03:40:25.495Z,41.27
2022-12-10T03:42:52.860Z,64.33
2022-12-10T03:45:20.138Z,40.27
2022-12-10T03:47:50.218Z,47.43
2022-12-10T03:50:17.981Z,41.40
2022-12-10T03:52:45.029Z,44.83
2022-12-10T03:55:12.176Z,47.13
2022-12-10T03:57:39.104Z,45.23
2022-12-10T04:00:08.539Z,47.37
2022-12-10T04:02:35.664Z,41.97
2022-12-10T04:05:06.360Z,45.07
2022-12-10T04:07:33.365Z,48.27
2022-12-10T04:10:00.648Z,43.83
2022-12-10T04:12:27.645Z,43.60
2022-12-10T04:15:13.582Z,47.93
2022-12-10T04:17:40.499Z,43.53
2022-12-10T04:20:32.445Z,46.47
2022-12-10T04:23:17.806Z,44.50
2022-12-10T04:26:03.473Z,46.57
2022-12-10T04:28:30.497Z,43.70
2022-12-10T04:30:57.727Z,46.37
2022-12-10T04:33:24.609Z,44.50
2022-12-10T04:35:53.206Z,47.67
2022-12-10T04:38:20.242Z,50.93
2022-12-10T04:40:47.536Z,55.00
2022-12-10T04:43:14.527Z,50.47
2022-12-10T04:45:41.717Z,55.10
2022-12-10T04:48:08.928Z,56.67
2022-12-10T04:50:36.253Z,52.17
2022-12-10T04:53:04.471Z,54.57
2022-12-10T04:55:31.670Z,56.17
2022-12-10T04:57:58.562Z,55.90
2022-12-10T05:00:26.298Z,51.77
2022-12-10T05:02:53.197Z,51.57
2022-12-10T05:05:20.432Z,51.77
2022-12-10T05:07:47.357Z,52.90
2022-12-10T05:10:16.130Z,46.97
2022-12-10T05:12:42.922Z,44.80
2022-12-10T05:15:11.172Z,44.87
2022-12-10T05:17:38.028Z,40.70
2022-12-10T05:20:06.610Z,42.10
2022-12-10T05:22:52.307Z,41.10
2022-12-10T05:25:20.970Z,39.50
2022-12-10T05:27:47.893Z,45.50
2022-12-10T05:30:15.127Z,44.70
2022-12-10T05:32:42.021Z,43.73
2022-12-10T05:35:09.338Z,47.57
2022-12-10T05:37:36.220Z,43.20
2022-12-10T05:40:04.204Z,45.43
2022-12-10T05:42:32.429Z,41.73
2022-12-10T05:45:00.008Z,44.17
2022-12-10T05:47:26.855Z,53.67
2022-12-10T05:49:53.777Z,42.53
2022-12-10T05:52:20.665Z,49.80
2022-12-10T05:54:47.844Z,51.20
2022-12-10T05:57:14.740Z,47.93
2022-12-10T05:59:43.289Z,47.63
2022-12-10T06:02:10.143Z,46.40
2022-12-10T06:04:37.339Z,48.90
2022-12-10T06:07:09.448Z,48.73
2022-12-10T06:09:38.410Z,49.50
2022-12-10T06:12:05.929Z,56.67
2022-12-10T06:14:33.280Z,54.93
2022-12-10T06:17:01.492Z,54.77
2022-12-10T06:19:28.969Z,55.17
2022-12-10T06:21:55.800Z,53.57
2022-12-10T06:24:22.951Z,57.00
2022-12-10T06:26:53.920Z,56.37
2022-12-10T06:29:23.088Z,53.20
2022-12-10T06:31:49.959Z,54.37
2022-12-10T06:34:18.550Z,55.53
2022-12-10T06:36:45.390Z,54.73
2022-12-10T06:39:12.675Z,56.27
2022-12-10T06:41:39.573Z,56.03
2022-12-10T06:44:08.833Z,54.90
2022-12-10T06:46:35.712Z,53.00
2022-12-10T06:49:02.942Z,57.63
2022-12-10T06:51:31.309Z,51.63
2022-12-10T06:53:58.655Z,50.87
2022-12-10T06:56:25.628Z,52.70
2022-12-10T06:58:52.847Z,54.80
2022-12-10T07:01:21.954Z,50.37
2022-12-10T07:03:49.986Z,54.57
2022-12-10T07:06:16.849Z,51.13
2022-12-10T07:08:45.097Z,59.63
2022-12-10T07:11:14.001Z,52.10
2022-12-10T07:13:41.866Z,57.60
2022-12-10T07:16:14.629Z,53.53
2022-12-10T07:18:45.091Z,54.87
2022-12-10T07:21:15.864Z,54.33
2022-12-10T07:23:43.289Z,48.27
2022-12-10T07:26:11.768Z,52.50
2022-12-10T07:28:49.536Z,46.20
2022-12-10T07:31:19.652Z,49.40
2022-12-10T07:33:46.859Z,52.60
2022-12-10T07:36:15.269Z,45.30
2022-12-10T07:38:42.544Z,49.33
2022-12-10T07:41:12.957Z,44.17
2022-12-10T07:43:42.180Z,49.93
2022-12-10T07:46:11.735Z,45.43
2022-12-10T07:48:40.744Z,44.37
2022-12-10T07:51:08.194Z,48.90
2022-12-10T07:53:35.586Z,49.20
2022-12-10T07:56:03.616Z,43.60
2022-12-10T07:58:32.415Z,40.67
2022-12-10T08:00:59.500Z,42.80
2022-12-10T08:03:26.636Z,39.43
2022-12-10T08:06:03.807Z,44.73
2022-12-10T08:08:30.780Z,48.17
2022-12-10T08:11:00.571Z,44.23
2022-12-10T08:13:28.525Z,40.23
2022-12-10T08:16:02.142Z,40.47
2022-12-10T08:18:29.326Z,40.17
2022-12-10T08:20:56.131Z,37.97
2022-12-10T08:23:23.024Z,39.37
2022-12-10T08:25:50.225Z,38.07
2022-12-10T08:28:17.260Z,39.07
2022-12-10T08:30:47.374Z,38.07
2022-12-10T08:33:15.950Z,39.23
2022-12-10T08:35:42.966Z,38.63
2022-12-10T08:38:09.866Z,42.80
2022-12-10T08:40:40.828Z,39.23
2022-12-10T08:43:07.943Z,43.10
2022-12-10T08:45:35.863Z,45.93
2022-12-10T08:48:03.590Z,45.10
2022-12-10T08:50:32.183Z,43.77
2022-12-10T08:52:59.042Z,41.13
2022-12-10T08:55:26.405Z,38.10
2022-12-10T08:57:53.238Z,42.00
2022-12-10T09:00:20.439Z,39.40
2022-12-10T09:02:47.494Z,58.23
2022-12-10T09:05:14.904Z,57.37
2022-12-10T09:07:43.205Z,46.77
2022-12-10T09:10:12.986Z,60.23
2022-12-10T09:12:40.218Z,49.67
2022-12-10T09:15:10.863Z,45.70
2022-12-10T09:17:39.364Z,46.87
2022-12-10T09:20:07.856Z,46.13
2022-12-10T09:22:37.684Z,47.87
2022-12-10T09:25:07.427Z,47.50
2022-12-10T09:27:34.484Z,48.30
2022-12-10T09:30:01.523Z,47.93
2022-12-10T09:32:28.431Z,45.03
2022-12-10T09:34:55.864Z,50.70
2022-12-10T09:37:22.810Z,50.57
2022-12-10T09:39:50.038Z,51.20
2022-12-10T09:42:34.412Z,48.47
2022-12-10T09:45:09.778Z,57.13
2022-12-10T09:47:41.092Z,49.63
2022-12-10T09:50:20.367Z,51.63
2022-12-10T09:52:50.090Z,48.33
2022-12-10T09:55:22.079Z,51.53
2022-12-10T09:57:52.672Z,53.63
2022-12-10T10:00:24.423Z,54.60
2022-12-10T10:02:52.458Z,48.07
2022-12-10T10:05:23.746Z,48.67
2022-12-10T10:07:54.586Z,47.00
2022-12-10T10:10:26.255Z,45.67
2022-12-10T10:12:59.457Z,52.87
2022-12-10T10:15:32.337Z,50.43
2022-12-10T10:18:04.099Z,50.90
2022-12-10T10:20:31.592Z,51.97
2022-12-10T10:23:00.971Z,48.33
2022-12-10T10:25:29.295Z,53.13
2022-12-10T10:27:57.478Z,50.33
2022-12-10T10:30:26.147Z,52.43
2022-12-10T10:32:54.619Z,57.47
2022-12-10T10:35:32.053Z,53.13
2022-12-10T10:38:05.804Z,50.03
2022-12-10T10:40:40.587Z,52.30
2022-12-10T10:43:16.218Z,55.50
2022-12-10T10:45:48.624Z,49.60
2022-12-10T10:48:18.093Z,53.37
2022-12-10T10:50:48.329Z,58.30
2022-12-10T10:53:33.124Z,53.53
2022-12-10T10:56:07.595Z,48.83
2022-12-10T10:58:37.217Z,48.93
2022-12-10T11:01:06.863Z,49.53
2022-12-10T11:03:37.094Z,52.10
2022-12-10T11:06:08.122Z,63.97
2022-12-10T11:08:38.177Z,57.83
2022-12-10T11:11:07.801Z,45.27
2022-12-10T11:13:38.151Z,49.23
2022-12-10T11:16:13.946Z,50.07
2022-12-10T11:18:42.722Z,59.33
2022-12-10T11:21:20.024Z,50.43
2022-12-10T11:23:50.515Z,46.37
2022-12-10T11:26:51.639Z,53.93
2022-12-10T11:29:36.126Z,54.17
2022-12-10T11:32:16.251Z,51.50
2022-12-10T11:34:59.274Z,60.50
2022-12-10T11:37:35.484Z,47.80
2022-12-10T11:40:29.567Z,59.57
2022-12-10T11:43:15.587Z,48.90
2022-12-10T11:45:56.668Z,55.93
2022-12-10T11:48:43.378Z,56.67
2022-12-10T11:51:23.010Z,58.53
2022-12-10T11:54:07.498Z,53.60
2022-12-10T11:56:39.245Z,50.50
2022-12-10T11:59:15.662Z,51.40
2022-12-10T12:02:05.013Z,52.40
2022-12-10T12:04:53.660Z,43.73
2022-12-10T12:07:35.337Z,43.60
2022-12-10T12:10:53.509Z,44.43
2022-12-10T12:13:25.291Z,46.30
2022-12-10T12:15:58.614Z,42.87
2022-12-10T12:18:34.102Z,40.90
2022-12-10T12:21:07.943Z,46.70
2022-12-10T12:23:46.748Z,47.43
2022-12-10T12:26:18.994Z,40.70
2022-12-10T12:28:52.394Z,44.50
2022-12-10T12:31:37.084Z,42.60
2022-12-10T12:34:17.258Z,45.23
2022-12-10T12:36:46.339Z,46.47
2022-12-10T12:39:21.127Z,50.93
2022-12-10T12:41:58.661Z,47.17
2022-12-10T12:44:34.667Z,43.50
2022-12-10T12:47:15.727Z,44.97
2022-12-10T12:49:49.721Z,43.83
2022-12-10T12:52:29.609Z,32.77
2022-12-10T12:55:02.632Z,38.77
2022-12-10T12:57:38.153Z,36.73
2022-12-10T13:00:11.811Z,43.23
2022-12-10T13:03:01.525Z,40.47
2022-12-10T13:05:33.953Z,40.03
2022-12-10T13:08:26.617Z,38.90
2022-12-10T13:10:57.769Z,38.77
2022-12-10T13:13:33.691Z,37.77
2022-12-10T13:16:48.659Z,37.07
2022-12-10T13:19:31.320Z,39.13
2022-12-10T13:22:05.327Z,39.33
2022-12-10T13:25:14.068Z,38.73
2022-12-10T13:27:43.181Z,37.30
2022-12-10T13:30:43.240Z,35.23
2022-12-10T13:33:20.452Z,36.90
2022-12-10T13:36:02.716Z,32.60
2022-12-10T13:38:41.624Z,38.03
2022-12-10T13:41:45.184Z,32.10
2022-12-10T13:44:41.272Z,31.63
2022-12-10T13:47:31.538Z,30.10
2022-12-10T13:50:01.944Z,31.57
2022-12-10T13:52:39.923Z,30.13
2022-12-10T13:55:27.887Z,29.43
2022-12-10T13:58:08.923Z,28.27
2022-12-10T14:00:43.657Z,28.83
2022-12-10T14:03:52.172Z,29.43
2022-12-10T14:06:25.240Z,30.33
2022-12-10T14:09:00.936Z,27.20
2022-12-10T14:11:37.354Z,29.73
2022-12-10T14:14:11.012Z,28.90
2022-12-10T14:16:41.871Z,32.83
2022-12-10T14:19:14.656Z,28.53
2022-12-10T14:21:45.219Z,29.37
2022-12-10T14:24:29.267Z,31.93
2022-12-10T14:27:02.408Z,29.43
2022-12-10T14:29:30.692Z,32.30
2022-12-10T14:31:58.569Z,31.97
2022-12-10T14:34:29.405Z,31.03
2022-12-10T14:37:00.785Z,32.43
2022-12-10T14:39:31.762Z,31.97
2022-12-10T14:42:03.552Z,31.43
2022-12-10T14:44:32.939Z,31.33
2022-12-10T14:47:14.316Z,31.70
2022-12-10T14:49:43.860Z,33.80
2022-12-10T14:52:14.846Z,34.53
2022-12-10T14:54:44.141Z,35.13
2022-12-10T14:57:20.421Z,33.27
2022-12-10T14:59:57.165Z,31.40
2022-12-10T15:02:32.378Z,33.43
2022-12-10T15:05:01.860Z,32.40
2022-12-10T15:07:38.537Z,31.67
2022-12-10T15:10:19.205Z,32.30
2022-12-10T15:13:06.874Z,29.97
2022-12-10T15:15:44.365Z,33.37
2022-12-10T15:18:18.159Z,31.70
2022-12-10T15:20:48.933Z,32.77
2022-12-10T15:23:35.508Z,31.77
2022-12-10T15:26:19.076Z,34.70
2022-12-10T15:29:37.137Z,31.07
2022-12-10T15:32:16.428Z,29.83
2022-12-10T15:34:47.226Z,34.63
2022-12-10T15:37:21.359Z,33.10
2022-12-10T15:39:53.757Z,32.10
2022-12-10T15:42:39.773Z,37.93
2022-12-10T15:45:20.412Z,33.20
2022-12-10T15:47:47.878Z,29.03
2022-12-10T15:50:15.493Z,29.43
2022-12-10T15:52:45.741Z,36.43
2022-12-10T15:55:14.823Z,39.27
2022-12-10T15:57:50.349Z,34.83
2022-12-10T16:00:46.196Z,44.77
2022-12-10T16:09:04.166Z,38.00
2022-12-10T16:11:33.595Z,32.57
2022-12-10T16:14:08.734Z,32.93
2022-12-10T16:19:49.593Z,34.90
2022-12-10T16:22:27.233Z,33.70
2022-12-10T16:25:34.143Z,38.40
2022-12-10T16:28:02.022Z,33.33
2022-12-10T16:30:38.867Z,33.20
2022-12-10T16:33:09.712Z,33.37
2022-12-10T16:35:36.893Z,33.50
2022-12-10T16:38:10.227Z,31.90
2022-12-10T16:40:39.874Z,30.87
2022-12-10T16:43:07.016Z,32.00
2022-12-10T16:45:37.661Z,28.77
2022-12-10T16:48:05.510Z,29.97
2022-12-10T16:50:35.390Z,30.03
2022-12-10T16:53:07.751Z,34.40
2022-12-10T16:55:35.069Z,31.73
2022-12-10T16:58:02.182Z,45.77
2022-12-10T17:00:29.677Z,46.63
2022-12-10T17:03:07.584Z,55.03
2022-12-10T17:05:43.111Z,77.90
2022-12-10T17:08:10.270Z,63.20
2022-12-10T17:10:56.260Z,38.37
2022-12-10T17:13:24.613Z,35.77
2022-12-10T17:15:51.767Z,33.00
2022-12-10T17:18:19.061Z,36.63
2022-12-10T17:20:47.888Z,34.63
2022-12-10T17:23:14.906Z,32.53
2022-12-10T17:25:42.961Z,35.40
2022-12-10T17:28:14.110Z,46.67
2022-12-10T17:30:41.047Z,44.50
2022-12-10T17:33:09.474Z,50.80
2022-12-10T17:35:36.967Z,39.77
2022-12-10T17:38:05.157Z,28.63
2022-12-10T17:40:32.614Z,30.63
2022-12-10T17:42:59.457Z,31.20
2022-12-10T17:45:26.461Z,31.57
2022-12-10T17:47:53.502Z,34.63
2022-12-10T17:50:32.089Z,34.70
2022-12-10T17:52:59.512Z,76.50
2022-12-10T17:55:28.726Z,127.87
2022-12-10T17:57:58.026Z,44.10
2022-12-10T18:00:27.926Z,34.00
2022-12-10T18:02:55.422Z,28.90
2022-12-10T18:05:22.427Z,32.63
2022-12-10T18:07:50.091Z,29.23
2022-12-10T18:10:20.866Z,32.03
2022-12-10T18:12:50.815Z,34.33
2022-12-10T18:15:18.640Z,33.30
2022-12-10T18:17:46.304Z,29.93
2022-12-10T18:20:22.097Z,32.70
2022-12-10T18:22:49.206Z,32.83
2022-12-10T18:25:21.989Z,27.60
2022-12-10T18:27:51.620Z,31.67
2022-12-10T18:30:21.712Z,33.40
2022-12-10T18:32:49.450Z,28.90
2022-12-10T18:35:17.202Z,34.17
2022-12-10T18:37:46.015Z,39.73
2022-12-10T18:40:16.959Z,32.27
2022-12-10T18:42:47.362Z,32.83
2022-12-10T18:45:16.114Z,28.20
2022-12-10T18:47:42.959Z,32.77
2022-12-10T18:50:20.386Z,28.50
2022-12-10T18:52:47.250Z,25.60
2022-12-10T18:55:14.502Z,28.73
2022-12-10T18:57:45.771Z,31.77
2022-12-10T19:00:17.859Z,26.90
2022-12-10T19:02:44.995Z,25.60
2022-12-10T19:05:12.917Z,25.07
2022-12-10T19:07:40.172Z,28.70
2022-12-10T19:10:14.684Z,26.50
2022-12-10T19:12:41.632Z,29.73
2022-12-10T19:15:09.853Z,32.50
2022-12-10T19:17:38.502Z,32.00
2022-12-10T19:20:07.485Z,28.10
2022-12-10T19:22:34.334Z,33.77
2022-12-10T19:25:01.330Z,31.83
2022-12-10T19:27:28.446Z,33.80
2022-12-10T19:29:55.384Z,31.10
2022-12-10T19:32:22.269Z,31.73
2022-12-10T19:34:50.588Z,28.67
2022-12-10T19:37:17.459Z,29.30
2022-12-10T19:39:44.722Z,31.87
2022-12-10T19:42:11.852Z,31.27
2022-12-10T19:44:38.757Z,28.50
2022-12-10T19:47:11.395Z,26.07
2022-12-10T19:49:38.625Z,24.77
2022-12-10T19:52:06.929Z,30.00
2022-12-10T19:54:34.262Z,27.17
2022-12-10T19:57:01.378Z,33.33
2022-12-10T19:59:28.621Z,40.93
2022-12-10T20:01:55.537Z,36.37
2022-12-10T20:04:22.579Z,29.87
2022-12-10T20:06:49.923Z,41.53
2022-12-10T20:09:21.510Z,39.03
2022-12-10T20:11:48.765Z,39.40
2022-12-10T20:14:16.052Z,32.27
2022-12-10T20:16:43.411Z,28.77
2022-12-10T20:19:11.888Z,23.70
2022-12-10T20:21:38.840Z,25.87
2022-12-10T20:24:07.443Z,27.33
2022-12-10T20:26:37.256Z,29.80
2022-12-10T20:29:07.059Z,25.57
2022-12-10T20:31:34.051Z,52.67
2022-12-10T20:34:01.386Z,35.97
2022-12-10T20:36:28.577Z,29.07
2022-12-10T20:38:55.560Z,28.70
2022-12-10T20:41:22.627Z,29.90
2022-12-10T20:43:51.873Z,29.27
2022-12-10T20:46:22.398Z,32.37
2022-12-10T20:48:50.305Z,29.07
2022-12-10T20:51:19.285Z,32.80
2022-12-10T20:53:46.458Z,26.93
2022-12-10T20:56:14.721Z,29.30
2022-12-10T20:58:41.783Z,34.27
2022-12-10T21:01:10.167Z,27.23
2022-12-10T21:03:38.065Z,26.50
2022-12-10T21:06:05.754Z,31.60
2022-12-10T21:08:32.897Z,28.30
2022-12-10T21:11:00.282Z,26.90
2022-12-10T21:13:29.275Z,32.07
2022-12-10T21:15:58.875Z,29.23
2022-12-10T21:18:28.035Z,26.33
2022-12-10T21:20:56.524Z,28.73
2022-12-10T21:23:25.519Z,27.00
2022-12-10T21:25:53.662Z,32.47
2022-12-10T21:28:21.204Z,26.17
2022-12-10T21:30:49.118Z,28.10
2022-12-10T21:33:17.114Z,27.20
2022-12-10T21:35:45.900Z,23.37
2022-12-10T21:38:12.805Z,25.43
2022-12-10T21:40:41.396Z,21.83
2022-12-10T21:43:18.823Z,27.63
2022-12-10T21:45:50.480Z,28.30
2022-12-10T21:48:19.997Z,25.47
2022-12-10T21:50:48.601Z,26.37
2022-12-10T21:53:15.954Z,26.13
2022-12-10T21:55:46.285Z,27.57
2022-12-10T21:58:13.292Z,28.47
2022-12-10T22:00:40.340Z,36.13
2022-12-10T22:03:07.337Z,29.03
2022-12-10T22:05:40.595Z,27.50
2022-12-10T22:08:10.340Z,25.90
2022-12-10T22:10:37.968Z,26.30
2022-12-10T22:13:04.907Z,27.40
2022-12-10T22:15:32.084Z,25.20
2022-12-10T22:17:59.142Z,23.10
2022-12-10T22:20:26.357Z,23.83
2022-12-10T22:22:53.211Z,24.63
2022-12-10T22:25:21.804Z,24.03
2022-12-10T22:27:49.009Z,22.73
2022-12-10T22:30:16.126Z,23.20
2022-12-10T22:32:45.005Z,24.07
2022-12-10T22:35:13.150Z,21.87
2022-12-10T22:37:40.651Z,22.50
2022-12-10T22:40:09.175Z,25.13
2022-12-10T22:42:40.859Z,23.40
2022-12-10T22:45:09.910Z,24.97
2022-12-10T22:47:37.052Z,23.13
2022-12-10T22:50:05.399Z,23.80
2022-12-10T22:52:32.589Z,24.60
2022-12-10T22:54:59.482Z,24.70
2022-12-10T22:57:26.700Z,19.83
2022-12-10T22:59:55.147Z,25.00
2022-12-10T23:02:25.058Z,23.07
2022-12-10T23:04:52.882Z,25.40
2022-12-10T23:07:19.851Z,22.87
2022-12-10T23:09:46.778Z,23.37
2022-12-10T23:12:32.365Z,23.23
2022-12-10T23:15:01.029Z,21.70
2022-12-10T23:17:27.881Z,20.87
2022-12-10T23:19:55.322Z,21.17
2022-12-10T23:22:22.311Z,21.73
2022-12-10T23:24:49.905Z,22.50
2022-12-10T23:27:16.812Z,22.87
2022-12-10T23:29:44.080Z,23.47
2022-12-10T23:32:12.311Z,22.50
2022-12-10T23:34:39.272Z,23.47
2022-12-10T23:37:07.158Z,23.10
2022-12-10T23:39:34.767Z,19.70
2022-12-10T23:42:01.972Z,22.50
2022-12-10T23:44:29.172Z,21.07
2022-12-10T23:46:56.051Z,20.63
2022-12-10T23:49:24.603Z,21.00
2022-12-10T23:51:51.519Z,20.03
2022-12-10T23:54:18.708Z,24.60
2022-12-10T23:56:45.580Z,24.10
2022-12-10T23:59:12.900Z,22.33
